Washington, District of Columbia
Current Conditions -  °F | °C
As of 7:52 PM on Thursday 30 Oct 2014 (Local Time) from KDCA Reporting Station
Overcast Overcast  
Wind Chill: 57°   Ceiling: 6000
Heat Index: 57°   Visibility: 10mi
Dew Point: 36°   Wind: 10mph
Humidity: 45%   Direction: 330°NNW
Pressure: 30.06"   Gusts: NA
Location:  38.89°N, 77.03°W
Report Text: KDCA 302352Z 33009KT 10SM OVC060 14/02 A3006 RMK AO2 SLP179 BINOVC T01390022 10172 20133 51009
Loading
Personal Weather Stations






























Interactive Weather Map
Tropical Storm Tracking
New forecast layout! Learn more

10-Day Weather Forecast

Advertisements
Track Severe Weather on mobile